Terminal Aerodrome Forecast
Issued by NWS Charleston, WV

Current Version | Previous Version | Graphics & Text | Print | Product List | Glossary On
Versions: 1 2 3 4 5 6 7 8 9 10 11 12 13 14 15 16 17 18 19 20 21 22 23 24 25 26
000
FTUS41 KRLX 011744
TAFBKW
TAF
KBKW 011744Z 0118/0218 27012G20KT P6SM OVC025
     FM012100 27013G19KT P6SM SCT025 OVC035
     FM012300 27009KT P6SM BKN035
     FM020100 25007KT P6SM BKN025
     FM021700 28010KT P6SM BKN035=

USA.gov is the U.S. government's official web portal to all federal, state and local government web resources and services.